createdAt,value
2019-05-10T00:00:27.111Z,1003.25
2019-05-10T00:02:27.145Z,1003.21
2019-05-10T00:03:27.137Z,1003.23
2019-05-10T00:04:27.125Z,1003.20
2019-05-10T00:05:27.126Z,1003.17
2019-05-10T00:07:27.166Z,1003.22
2019-05-10T00:08:27.123Z,1003.27
2019-05-10T00:09:27.143Z,1003.23
2019-05-10T00:10:27.122Z,1003.27
2019-05-10T00:12:27.106Z,1003.25
2019-05-10T00:13:27.146Z,1003.26
2019-05-10T00:14:27.178Z,1003.25
2019-05-10T00:15:27.111Z,1003.28
2019-05-10T00:17:27.116Z,1003.35
2019-05-10T00:18:27.130Z,1003.23
2019-05-10T00:19:27.120Z,1003.32
2019-05-10T00:20:27.153Z,1003.19
2019-05-10T00:22:27.132Z,1003.20
2019-05-10T00:23:27.160Z,1003.22
2019-05-10T00:24:27.121Z,1003.30
2019-05-10T00:25:27.204Z,1003.20
2019-05-10T00:27:27.156Z,1003.24
2019-05-10T00:28:27.140Z,1003.21
2019-05-10T00:29:27.154Z,1003.21
2019-05-10T00:30:27.142Z,1003.22
2019-05-10T00:32:27.133Z,1003.20
2019-05-10T00:33:27.177Z,1003.21
2019-05-10T00:34:27.193Z,1003.27
2019-05-10T00:35:27.155Z,1003.25
2019-05-10T00:37:27.155Z,1003.20
2019-05-10T00:38:27.153Z,1003.24
2019-05-10T00:39:27.149Z,1003.22
2019-05-10T00:40:27.191Z,1003.18
2019-05-10T00:42:27.163Z,1003.19
2019-05-10T00:43:27.158Z,1003.21
2019-05-10T00:44:27.147Z,1003.10
2019-05-10T00:45:27.188Z,1003.19
2019-05-10T00:47:27.178Z,1003.23
2019-05-10T00:48:27.196Z,1003.22
2019-05-10T00:49:27.171Z,1003.23
2019-05-10T00:50:27.188Z,1003.23
2019-05-10T00:52:27.163Z,1003.23
2019-05-10T00:53:27.167Z,1003.23
2019-05-10T00:54:27.174Z,1003.26
2019-05-10T00:55:27.161Z,1003.22
2019-05-10T00:57:27.160Z,1003.23
2019-05-10T00:58:27.174Z,1003.28
2019-05-10T00:59:27.215Z,1003.22
2019-05-10T01:00:27.192Z,1003.24
2019-05-10T01:02:27.175Z,1003.28
2019-05-10T01:03:27.225Z,1003.23
2019-05-10T01:04:27.189Z,1003.23
2019-05-10T01:05:27.167Z,1003.29
2019-05-10T01:07:27.217Z,1003.29
2019-05-10T01:08:27.213Z,1003.35
2019-05-10T01:09:27.184Z,1003.31
2019-05-10T01:10:27.191Z,1003.26
2019-05-10T01:12:27.214Z,1003.30
2019-05-10T01:13:27.167Z,1003.29
2019-05-10T01:14:27.204Z,1003.35
2019-05-10T01:15:27.175Z,1003.32
2019-05-10T01:17:27.193Z,1003.29
2019-05-10T01:18:27.188Z,1003.29
2019-05-10T01:19:27.240Z,1003.38
2019-05-10T01:20:27.193Z,1003.33
2019-05-10T01:22:27.210Z,1003.36
2019-05-10T01:23:27.212Z,1003.37
2019-05-10T01:24:27.229Z,1003.43
2019-05-10T01:25:35.332Z,1003.39
2019-05-10T01:27:27.188Z,1003.38
2019-05-10T01:28:27.196Z,1003.42
2019-05-10T01:29:27.245Z,1003.39
2019-05-10T01:30:27.190Z,1003.42
2019-05-10T01:32:27.213Z,1003.42
2019-05-10T01:33:27.196Z,1003.41
2019-05-10T01:34:27.215Z,1003.34
2019-05-10T01:35:27.215Z,1003.44
2019-05-10T01:37:27.216Z,1003.47
2019-05-10T01:38:27.249Z,1003.49
2019-05-10T01:39:27.214Z,1003.45
2019-05-10T01:40:27.259Z,1003.46
2019-05-10T01:42:27.242Z,1003.47
2019-05-10T01:43:27.224Z,1003.48
2019-05-10T01:44:27.227Z,1003.48
2019-05-10T01:45:27.226Z,1003.45
2019-05-10T01:47:27.245Z,1003.48
2019-05-10T01:48:27.218Z,1003.53
2019-05-10T01:49:27.246Z,1003.59
2019-05-10T01:50:27.241Z,1003.50
2019-05-10T01:52:27.211Z,1003.52
2019-05-10T01:53:27.247Z,1003.58
2019-05-10T01:54:27.237Z,1003.59
2019-05-10T01:55:27.230Z,1003.62
2019-05-10T01:57:27.310Z,1003.66
2019-05-10T01:58:27.228Z,1003.61
2019-05-10T01:59:27.272Z,1003.69
2019-05-10T02:00:27.239Z,1003.63
2019-05-10T02:03:27.254Z,1003.70
2019-05-10T02:04:27.263Z,1003.61
2019-05-10T02:05:27.276Z,1003.62
2019-05-10T02:06:27.233Z,1003.62
2019-05-10T02:08:27.286Z,1003.66
2019-05-10T02:09:27.274Z,1003.65
2019-05-10T02:10:27.249Z,1003.61
2019-05-10T02:11:27.227Z,1003.63
2019-05-10T02:13:27.253Z,1003.62
2019-05-10T02:14:27.230Z,1003.58
2019-05-10T02:15:27.247Z,1003.69
2019-05-10T02:16:27.242Z,1003.61
2019-05-10T02:18:27.256Z,1003.65
2019-05-10T02:19:27.255Z,1003.60
2019-05-10T02:20:27.245Z,1003.74
2019-05-10T02:21:27.207Z,1003.74
2019-05-10T02:24:27.265Z,1003.73
2019-05-10T02:25:27.297Z,1003.72
2019-05-10T02:27:27.317Z,1003.69
2019-05-10T02:28:27.245Z,1003.74
2019-05-10T02:29:27.297Z,1003.69
2019-05-10T02:30:27.271Z,1003.67
2019-05-10T02:32:27.244Z,1003.76
2019-05-10T02:33:27.253Z,1003.70
2019-05-10T02:34:27.305Z,1003.71
2019-05-10T02:35:27.276Z,1003.78
2019-05-10T02:37:27.298Z,1003.74
2019-05-10T02:38:27.265Z,1003.79
2019-05-10T02:39:27.283Z,1003.74
2019-05-10T02:40:27.280Z,1003.78
2019-05-10T02:43:27.281Z,1003.84
2019-05-10T02:44:27.297Z,1003.81
2019-05-10T02:45:27.305Z,1003.81
2019-05-10T02:46:27.284Z,1003.75
2019-05-10T02:48:27.293Z,1003.87
2019-05-10T02:49:27.297Z,1003.86
2019-05-10T02:50:27.291Z,1003.80
2019-05-10T02:51:27.282Z,1003.87
2019-05-10T02:53:27.269Z,1003.88
2019-05-10T02:54:27.269Z,1003.84
2019-05-10T02:55:27.320Z,1003.88
2019-05-10T02:56:30.809Z,1003.84
2019-05-10T02:58:27.285Z,1003.86
2019-05-10T02:59:27.294Z,1003.87
2019-05-10T03:00:27.274Z,1003.88
2019-05-10T03:01:27.318Z,1003.88
2019-05-10T03:03:27.335Z,1003.94
2019-05-10T03:04:27.279Z,1003.94
2019-05-10T03:05:27.282Z,1003.98
2019-05-10T03:06:27.315Z,1003.97
2019-05-10T03:09:27.299Z,1004.02
2019-05-10T03:10:27.286Z,1004.02
2019-05-10T03:11:27.307Z,1004.02
2019-05-10T03:12:27.319Z,1004.03
2019-05-10T03:14:27.332Z,1004.07
2019-05-10T03:15:27.293Z,1004.01
2019-05-10T03:16:27.329Z,1004.04
2019-05-10T03:17:27.318Z,1004.00
2019-05-10T03:19:27.323Z,1004.00
2019-05-10T03:20:27.316Z,1004.12
2019-05-10T03:21:27.284Z,1004.12
2019-05-10T03:22:27.340Z,1004.08
2019-05-10T03:24:28.140Z,1004.17
2019-05-10T03:25:27.341Z,1004.12
2019-05-10T03:26:27.313Z,1004.19
2019-05-10T03:27:27.326Z,1004.14
2019-05-10T03:29:27.358Z,1004.15
2019-05-10T03:30:27.322Z,1004.27
2019-05-10T03:31:27.374Z,1004.23
2019-05-10T03:32:27.334Z,1004.26
2019-05-10T03:34:27.350Z,1004.34
2019-05-10T03:35:27.357Z,1004.35
2019-05-10T03:36:27.342Z,1004.38
2019-05-10T03:37:27.342Z,1004.35
2019-05-10T03:40:27.338Z,1004.42
2019-05-10T03:41:27.320Z,1004.44
2019-05-10T03:42:27.326Z,1004.42
2019-05-10T03:43:27.368Z,1004.42
2019-05-10T03:45:27.370Z,1004.51
2019-05-10T03:46:27.353Z,1004.52
2019-05-10T03:47:27.329Z,1004.51
2019-05-10T03:48:27.329Z,1004.55
2019-05-10T03:51:27.389Z,1004.57
2019-05-10T03:52:27.330Z,1004.60
2019-05-10T03:53:27.383Z,1004.53
2019-05-10T03:54:27.375Z,1004.59
2019-05-10T03:57:27.360Z,1004.59
2019-05-10T03:58:27.352Z,1004.65
2019-05-10T03:59:27.343Z,1004.65
2019-05-10T04:00:27.375Z,1004.56
2019-05-10T04:02:27.414Z,1004.63
2019-05-10T04:03:27.362Z,1004.62
2019-05-10T04:04:27.373Z,1004.69
2019-05-10T04:05:27.344Z,1004.69
2019-05-10T04:07:27.369Z,1004.66
2019-05-10T04:08:27.381Z,1004.68
2019-05-10T04:09:27.376Z,1004.71
2019-05-10T04:10:27.394Z,1004.73
2019-05-10T04:12:27.397Z,1004.77
2019-05-10T04:13:27.391Z,1004.69
2019-05-10T04:14:27.355Z,1004.75
2019-05-10T04:15:27.382Z,1004.74
2019-05-10T04:17:27.410Z,1004.77
2019-05-10T04:18:27.353Z,1004.81
2019-05-10T04:19:27.357Z,1004.84
2019-05-10T04:20:27.374Z,1004.89
2019-05-10T04:22:27.404Z,1004.84
2019-05-10T04:23:27.375Z,1004.88
2019-05-10T04:24:27.425Z,1004.93
2019-05-10T04:25:27.398Z,1004.95
2019-05-10T04:27:32.559Z,1004.94
2019-05-10T04:28:27.390Z,1004.97
2019-05-10T04:29:27.352Z,1004.99
2019-05-10T04:30:31.549Z,1004.99
2019-05-10T04:32:27.377Z,1005.06
2019-05-10T04:33:27.380Z,1005.06
2019-05-10T04:34:27.361Z,1005.08
2019-05-10T04:35:27.422Z,1005.11
2019-05-10T04:37:27.430Z,1005.16
2019-05-10T04:38:27.429Z,1005.21
2019-05-10T04:39:27.482Z,1005.19
2019-05-10T04:40:27.474Z,1005.19
2019-05-10T04:42:27.406Z,1005.32
2019-05-10T04:43:27.428Z,1005.28
2019-05-10T04:44:27.405Z,1005.27
2019-05-10T04:45:27.384Z,1005.27
2019-05-10T04:47:27.371Z,1005.36
2019-05-10T04:48:27.440Z,1005.28
2019-05-10T04:49:27.410Z,1005.32
2019-05-10T04:50:27.380Z,1005.35
2019-05-10T04:52:27.424Z,1005.36
2019-05-10T04:53:27.392Z,1005.43
2019-05-10T04:54:27.399Z,1005.39
2019-05-10T04:55:27.407Z,1005.43
2019-05-10T04:57:27.461Z,1005.43
2019-05-10T04:58:27.449Z,1005.48
2019-05-10T04:59:27.377Z,1005.51
2019-05-10T05:00:27.385Z,1005.50
2019-05-10T05:02:27.444Z,1005.51
2019-05-10T05:03:27.433Z,1005.54
2019-05-10T05:04:27.434Z,1005.49
2019-05-10T05:05:27.454Z,1005.53
2019-05-10T05:07:27.410Z,1005.54
2019-05-10T05:08:27.418Z,1005.60
2019-05-10T05:09:27.433Z,1005.53
2019-05-10T05:10:27.403Z,1005.56
2019-05-10T05:12:27.429Z,1005.60
2019-05-10T05:13:27.489Z,1005.61
2019-05-10T05:14:27.421Z,1005.71
2019-05-10T05:15:27.415Z,1005.67
2019-05-10T05:17:27.445Z,1005.68
2019-05-10T05:18:27.457Z,1005.74
2019-05-10T05:19:27.434Z,1005.80
2019-05-10T05:20:27.443Z,1005.78
2019-05-10T05:23:27.473Z,1005.83
2019-05-10T05:24:27.431Z,1005.78
2019-05-10T05:25:27.451Z,1005.84
2019-05-10T05:26:27.446Z,1005.87
2019-05-10T05:28:27.475Z,1005.96
2019-05-10T05:29:27.446Z,1005.90
2019-05-10T05:30:27.455Z,1005.87
2019-05-10T05:32:27.439Z,1005.96
2019-05-10T05:33:27.468Z,1005.96
2019-05-10T05:34:27.423Z,1006.00
2019-05-10T05:35:27.439Z,1006.01
2019-05-10T05:37:27.424Z,1005.99
2019-05-10T05:39:27.462Z,1006.07
2019-05-10T05:40:27.518Z,1006.04
2019-05-10T05:41:27.448Z,1006.04
2019-05-10T05:42:29.297Z,1006.08
2019-05-10T05:44:27.887Z,1006.04
2019-05-10T05:45:28.299Z,1006.08
2019-05-10T05:46:27.516Z,1006.08
2019-05-10T05:47:27.441Z,1006.06
2019-05-10T05:49:27.435Z,1006.06
2019-05-10T05:50:27.495Z,1006.03
2019-05-10T05:51:27.459Z,1006.01
2019-05-10T05:52:27.478Z,1006.10
2019-05-10T05:56:27.502Z,1006.13
2019-05-10T05:57:29.448Z,1006.09
2019-05-10T05:58:27.562Z,1006.13
2019-05-10T05:59:27.477Z,1006.12
2019-05-10T06:01:29.589Z,1006.13
2019-05-10T06:02:27.464Z,1006.15
2019-05-10T06:03:29.343Z,1006.21
2019-05-10T06:04:27.452Z,1006.19
2019-05-10T06:06:27.454Z,1006.17
2019-05-10T06:08:29.991Z,1006.22
2019-05-10T06:09:31.930Z,1006.22
2019-05-10T06:10:27.486Z,1006.24
2019-05-10T06:11:29.874Z,1006.28
2019-05-10T06:13:30.516Z,1006.24
2019-05-10T06:14:27.521Z,1006.29
2019-05-10T06:15:29.109Z,1006.25
2019-05-10T06:16:27.483Z,1006.28
2019-05-10T06:18:27.460Z,1006.38
2019-05-10T06:19:29.612Z,1006.36
2019-05-10T06:20:27.473Z,1006.35
2019-05-10T06:21:27.481Z,1006.34
2019-05-10T06:24:27.528Z,1006.46
2019-05-10T06:25:38.819Z,1006.47
2019-05-10T06:26:28.738Z,1006.43
2019-05-10T06:27:27.497Z,1006.47
2019-05-10T06:30:27.527Z,1006.43
2019-05-10T06:31:27.539Z,1006.45
2019-05-10T06:32:27.946Z,1006.44
2019-05-10T06:33:27.528Z,1006.49
2019-05-10T06:36:27.520Z,1006.54
2019-05-10T06:37:31.070Z,1006.59
2019-05-10T06:38:27.535Z,1006.60
2019-05-10T06:39:27.508Z,1006.65
2019-05-10T06:41:27.530Z,1006.65
2019-05-10T06:42:28.936Z,1006.67
2019-05-10T06:43:27.552Z,1006.74
2019-05-10T06:44:31.371Z,1006.68
2019-05-10T06:46:29.671Z,1006.74
2019-05-10T06:47:27.545Z,1006.78
2019-05-10T06:48:32.936Z,1006.81
2019-05-10T06:49:27.519Z,1006.79
2019-05-10T06:51:27.535Z,1006.83
2019-05-10T06:52:28.295Z,1006.87
2019-05-10T06:53:27.559Z,1006.82
2019-05-10T06:54:27.535Z,1006.85
2019-05-10T06:56:27.508Z,1006.86
2019-05-10T06:57:27.545Z,1006.87
2019-05-10T06:58:30.454Z,1006.95
2019-05-10T06:59:27.506Z,1006.94
2019-05-10T07:01:27.539Z,1006.95
2019-05-10T07:02:31.852Z,1007.02
2019-05-10T07:03:27.507Z,1007.05
2019-05-10T07:04:27.572Z,1007.10
2019-05-10T07:06:27.571Z,1007.12
2019-05-10T07:07:43.436Z,1007.13
2019-05-10T07:08:27.538Z,1007.13
2019-05-10T07:09:27.552Z,1007.11
2019-05-10T07:11:27.539Z,1007.19
2019-05-10T07:12:30.179Z,1007.12
2019-05-10T07:13:27.574Z,1007.19
2019-05-10T07:14:27.533Z,1007.23
2019-05-10T07:16:27.552Z,1007.33
2019-05-10T07:17:27.531Z,1007.24
2019-05-10T07:18:27.580Z,1007.29
2019-05-10T07:19:28.816Z,1007.35
2019-05-10T07:22:29.027Z,1007.40
2019-05-10T07:23:30.047Z,1007.37
2019-05-10T07:24:27.544Z,1007.42
2019-05-10T07:25:27.548Z,1007.36
2019-05-10T07:27:27.542Z,1007.42
2019-05-10T07:28:27.562Z,1007.42
2019-05-10T07:29:30.168Z,1007.40
2019-05-10T07:30:27.592Z,1007.44
2019-05-10T07:32:27.557Z,1007.42
2019-05-10T07:33:27.539Z,1007.44
2019-05-10T07:34:27.576Z,1007.43
2019-05-10T07:35:30.856Z,1007.49
2019-05-10T07:37:27.603Z,1007.51
2019-05-10T07:38:31.006Z,1007.60
2019-05-10T07:39:27.560Z,1007.58
2019-05-10T07:40:27.554Z,1007.60
2019-05-10T07:42:27.570Z,1007.59
2019-05-10T07:43:29.050Z,1007.55
2019-05-10T07:44:27.593Z,1007.62
2019-05-10T07:45:27.581Z,1007.58
2019-05-10T07:47:30.291Z,1007.63
2019-05-10T07:48:27.576Z,1007.64
2019-05-10T07:49:30.478Z,1007.64
2019-05-10T07:50:27.555Z,1007.62
2019-05-10T07:52:27.570Z,1007.69
2019-05-10T07:53:27.599Z,1007.71
2019-05-10T07:54:27.579Z,1007.77
2019-05-10T07:55:29.808Z,1007.77
2019-05-10T07:57:27.566Z,1007.76
2019-05-10T07:58:27.570Z,1007.80
2019-05-10T07:59:30.327Z,1007.79
2019-05-10T08:00:27.616Z,1007.79
2019-05-10T08:03:29.782Z,1007.85
2019-05-10T08:04:32.305Z,1007.86
2019-05-10T08:05:29.601Z,1007.83
2019-05-10T08:07:29.438Z,1007.79
2019-05-10T08:08:29.640Z,1007.85
2019-05-10T08:09:31.500Z,1007.91
2019-05-10T08:10:29.050Z,1007.91
2019-05-10T08:12:28.822Z,1007.84
2019-05-10T08:13:28.474Z,1007.83
2019-05-10T08:14:28.998Z,1007.85
2019-05-10T08:15:30.561Z,1007.85
2019-05-10T08:17:28.713Z,1007.86
2019-05-10T08:18:29.381Z,1007.86
2019-05-10T08:19:27.635Z,1007.86
2019-05-10T08:20:42.199Z,1007.90
2019-05-10T08:22:27.636Z,1007.95
2019-05-10T08:23:28.166Z,1008.03
2019-05-10T08:24:27.624Z,1008.01
2019-05-10T08:25:33.049Z,1008.01
2019-05-10T08:27:27.604Z,1008.05
2019-05-10T08:28:32.622Z,1008.04
2019-05-10T08:29:27.639Z,1008.05
2019-05-10T08:30:29.261Z,1008.05
2019-05-10T08:32:29.870Z,1008.14
2019-05-10T08:33:27.616Z,1008.10
2019-05-10T08:34:28.828Z,1008.09
2019-05-10T08:35:27.592Z,1008.11
2019-05-10T08:37:33.432Z,1008.11
2019-05-10T08:38:27.608Z,1008.14
2019-05-10T08:39:27.677Z,1008.12
2019-05-10T08:40:34.316Z,1008.13
2019-05-10T08:42:42.833Z,1008.17
2019-05-10T08:43:33.119Z,1008.19
2019-05-10T08:44:27.622Z,1008.17
2019-05-10T08:45:27.630Z,1008.30
2019-05-10T08:47:28.003Z,1008.32
2019-05-10T08:48:27.840Z,1008.30
2019-05-10T08:49:40.772Z,1008.33
2019-05-10T08:50:44.181Z,1008.33
2019-05-10T08:52:31.141Z,1008.41
2019-05-10T08:53:27.622Z,1008.37
2019-05-10T08:54:27.674Z,1008.34
2019-05-10T08:55:27.674Z,1008.40
2019-05-10T08:57:27.662Z,1008.42
2019-05-10T08:58:31.715Z,1008.38
2019-05-10T08:59:30.703Z,1008.44
2019-05-10T09:00:41.646Z,1008.43
2019-05-10T09:03:27.655Z,1008.52
2019-05-10T09:04:33.442Z,1008.46
2019-05-10T09:05:29.272Z,1008.52
2019-05-10T09:07:29.342Z,1008.67
2019-05-10T09:08:31.365Z,1008.52
2019-05-10T09:09:27.669Z,1008.59
2019-05-10T09:10:27.688Z,1008.57
2019-05-10T09:13:33.553Z,1008.59
2019-05-10T09:14:27.648Z,1008.60
2019-05-10T09:15:27.683Z,1008.60
2019-05-10T09:16:29.143Z,1008.67
2019-05-10T09:18:27.724Z,1008.61
2019-05-10T09:20:27.641Z,1008.66
2019-05-10T09:21:27.668Z,1008.74
2019-05-10T09:23:27.650Z,1008.76
2019-05-10T09:24:27.662Z,1008.73
2019-05-10T09:25:30.904Z,1008.72
2019-05-10T09:26:27.650Z,1008.77
2019-05-10T09:28:27.698Z,1008.86
2019-05-10T09:29:32.163Z,1008.83
2019-05-10T09:30:27.711Z,1008.88
2019-05-10T09:31:27.666Z,1008.93
2019-05-10T09:33:27.697Z,1008.91
2019-05-10T09:34:27.712Z,1008.94
2019-05-10T09:35:27.659Z,1008.95
2019-05-10T09:36:31.011Z,1008.90
2019-05-10T09:38:28.763Z,1008.94
2019-05-10T09:39:27.715Z,1008.97
2019-05-10T09:40:27.667Z,1008.98
2019-05-10T09:41:32.450Z,1009.02
2019-05-10T09:44:27.703Z,1009.02
2019-05-10T09:45:27.697Z,1009.02
2019-05-10T09:46:27.702Z,1009.11
2019-05-10T09:47:27.725Z,1009.09
2019-05-10T09:49:27.748Z,1009.09
2019-05-10T09:50:30.405Z,1009.09
2019-05-10T09:51:30.361Z,1009.11
2019-05-10T09:52:27.743Z,1009.05
2019-05-10T09:54:29.525Z,1009.09
2019-05-10T09:55:28.073Z,1009.06
2019-05-10T09:56:27.774Z,1009.09
2019-05-10T09:57:27.909Z,1009.08
2019-05-10T09:59:27.865Z,1009.09
2019-05-10T10:00:30.272Z,1009.12
2019-05-10T10:01:28.260Z,1009.10
2019-05-10T10:02:33.627Z,1009.13
2019-05-10T10:05:27.680Z,1009.20
2019-05-10T10:06:29.706Z,1009.13
2019-05-10T10:07:31.829Z,1009.16
2019-05-10T10:08:28.253Z,1009.17
2019-05-10T10:10:32.234Z,1009.18
2019-05-10T10:11:27.913Z,1009.17
2019-05-10T10:12:28.901Z,1009.19
2019-05-10T10:13:39.324Z,1009.21
2019-05-10T10:15:33.250Z,1009.25
2019-05-10T10:16:28.263Z,1009.30
2019-05-10T10:17:30.561Z,1009.31
2019-05-10T10:18:28.395Z,1009.31
2019-05-10T10:21:35.067Z,1009.31
2019-05-10T10:22:27.874Z,1009.36
2019-05-10T10:23:33.055Z,1009.29
2019-05-10T10:24:28.478Z,1009.30
2019-05-10T10:26:27.737Z,1009.30
2019-05-10T10:27:34.235Z,1009.37
2019-05-10T10:28:28.584Z,1009.35
2019-05-10T10:29:28.764Z,1009.31
2019-05-10T10:31:33.038Z,1009.37
2019-05-10T10:32:31.673Z,1009.36
2019-05-10T10:33:28.969Z,1009.34
2019-05-10T10:34:27.775Z,1009.34
2019-05-10T10:37:29.017Z,1009.38
2019-05-10T10:38:31.060Z,1009.35
2019-05-10T10:39:27.840Z,1009.44
2019-05-10T10:40:28.043Z,1009.42
2019-05-10T10:42:27.739Z,1009.38
2019-05-10T10:43:27.772Z,1009.36
2019-05-10T10:44:27.783Z,1009.38
2019-05-10T10:45:27.794Z,1009.38
2019-05-10T10:47:30.961Z,1009.32
2019-05-10T10:48:28.436Z,1009.35
2019-05-10T10:49:31.680Z,1009.37
2019-05-10T10:50:27.782Z,1009.32
2019-05-10T10:52:27.884Z,1009.31
2019-05-10T10:53:28.371Z,1009.33
2019-05-10T10:54:33.794Z,1009.35
2019-05-10T10:55:32.426Z,1009.34
2019-05-10T10:58:27.786Z,1009.35
2019-05-10T10:59:27.763Z,1009.42
2019-05-10T11:00:27.750Z,1009.38
2019-05-10T11:01:33.238Z,1009.38
2019-05-10T11:03:30.220Z,1009.43
2019-05-10T11:04:27.779Z,1009.44
2019-05-10T11:05:27.747Z,1009.40
2019-05-10T11:06:27.765Z,1009.41
2019-05-10T11:08:27.789Z,1009.38
2019-05-10T11:09:27.800Z,1009.42
2019-05-10T11:10:27.819Z,1009.45
2019-05-10T11:11:32.913Z,1009.44
2019-05-10T11:13:41.587Z,1009.43
2019-05-10T11:14:31.944Z,1009.45
2019-05-10T11:15:30.195Z,1009.47
2019-05-10T11:16:27.808Z,1009.48
2019-05-10T11:19:27.796Z,1009.46
2019-05-10T11:20:27.790Z,1009.38
2019-05-10T11:21:28.622Z,1009.46
2019-05-10T11:22:27.808Z,1009.49
2019-05-10T11:24:27.815Z,1009.53
2019-05-10T11:25:27.835Z,1009.42
2019-05-10T11:26:32.940Z,1009.49
2019-05-10T11:27:27.820Z,1009.46
2019-05-10T11:29:28.086Z,1009.48
2019-05-10T11:30:27.778Z,1009.50
2019-05-10T11:31:27.831Z,1009.50
2019-05-10T11:32:27.779Z,1009.53
2019-05-10T11:34:30.552Z,1009.52
2019-05-10T11:35:31.111Z,1009.58
2019-05-10T11:36:27.792Z,1009.63
2019-05-10T11:37:32.929Z,1009.60
2019-05-10T11:39:34.761Z,1009.60
2019-05-10T11:40:32.161Z,1009.67
2019-05-10T11:41:27.832Z,1009.64
2019-05-10T11:42:27.793Z,1009.67
2019-05-10T11:44:27.830Z,1009.69
2019-05-10T11:45:34.431Z,1009.72
2019-05-10T11:46:28.169Z,1009.71
2019-05-10T11:47:27.836Z,1009.70
2019-05-10T11:49:27.801Z,1009.72
2019-05-10T11:51:28.061Z,1009.72
2019-05-10T11:52:29.235Z,1009.68
2019-05-10T11:54:27.836Z,1009.77
2019-05-10T11:55:27.829Z,1009.72
2019-05-10T11:56:28.090Z,1009.74
2019-05-10T11:57:27.805Z,1009.79
2019-05-10T11:59:04.843Z,1009.73
2019-05-10T11:59:33.879Z,1009.76
2019-05-10T12:00:31.919Z,1009.77
2019-05-10T12:01:27.846Z,1009.81
2019-05-10T12:02:37.301Z,1009.85
2019-05-10T12:04:36.241Z,1009.82
2019-05-10T12:05:27.825Z,1009.84
2019-05-10T12:06:27.827Z,1009.84
2019-05-10T12:07:35.159Z,1009.85
2019-05-10T12:09:27.834Z,1009.80
2019-05-10T12:10:27.844Z,1009.84
2019-05-10T12:12:45.262Z,1009.87
2019-05-10T12:14:27.833Z,1009.84
2019-05-10T12:15:27.856Z,1009.80
2019-05-10T12:16:27.882Z,1009.77
2019-05-10T12:17:27.891Z,1009.75
2019-05-10T12:19:36.874Z,1009.75
2019-05-10T12:20:41.490Z,1009.71
2019-05-10T12:21:27.871Z,1009.74
2019-05-10T12:22:37.591Z,1009.76
2019-05-10T12:24:45.212Z,1009.78
2019-05-10T12:26:31.160Z,1009.81
2019-05-10T12:27:41.851Z,1009.76
2019-05-10T12:29:27.875Z,1009.75
2019-05-10T12:30:29.402Z,1009.79
2019-05-10T12:31:27.878Z,1009.74
2019-05-10T12:32:35.202Z,1009.78
2019-05-10T12:34:27.873Z,1009.74
2019-05-10T12:35:35.614Z,1009.79
2019-05-10T12:36:27.883Z,1009.71
2019-05-10T12:37:27.849Z,1009.80
2019-05-10T12:39:27.905Z,1009.82
2019-05-10T12:40:27.899Z,1009.79
2019-05-10T12:41:27.902Z,1009.74
2019-05-10T12:42:27.843Z,1009.73
2019-05-10T12:44:27.911Z,1009.83
2019-05-10T12:45:27.900Z,1009.80
2019-05-10T12:46:27.841Z,1009.81
2019-05-10T12:47:27.894Z,1009.86
2019-05-10T12:49:27.912Z,1009.78
2019-05-10T12:50:27.914Z,1009.80
2019-05-10T12:51:27.891Z,1009.75
2019-05-10T12:52:28.885Z,1009.74
2019-05-10T12:55:27.886Z,1009.78
2019-05-10T12:56:27.923Z,1009.75
2019-05-10T12:57:27.866Z,1009.78
2019-05-10T12:58:27.888Z,1009.77
2019-05-10T13:00:27.917Z,1009.69
2019-05-10T13:02:27.903Z,1009.79
2019-05-10T13:03:31.210Z,1009.78
2019-05-10T13:04:40.173Z,1009.73
2019-05-10T13:05:31.901Z,1009.72
2019-05-10T13:07:27.905Z,1009.74
2019-05-10T13:08:27.923Z,1009.70
2019-05-10T13:09:38.666Z,1009.74
2019-05-10T13:10:28.053Z,1009.70
2019-05-10T13:12:27.908Z,1009.73
2019-05-10T13:13:30.059Z,1009.75
2019-05-10T13:14:29.254Z,1009.74
2019-05-10T13:15:31.068Z,1009.77
2019-05-10T13:18:48.093Z,1009.75
2019-05-10T13:19:27.920Z,1009.73
2019-05-10T13:20:30.961Z,1009.77
2019-05-10T13:21:30.299Z,1009.77
2019-05-10T13:25:27.906Z,1009.78
2019-05-10T13:26:27.915Z,1009.79
2019-05-10T13:27:27.914Z,1009.77
2019-05-10T13:28:27.948Z,1009.76
2019-05-10T13:30:29.773Z,1009.75
2019-05-10T13:31:27.897Z,1009.81
2019-05-10T13:32:27.954Z,1009.76
2019-05-10T13:33:29.265Z,1009.80
2019-05-10T13:36:30.672Z,1009.85
2019-05-10T13:37:27.940Z,1009.86
2019-05-10T13:38:27.933Z,1009.81
2019-05-10T13:39:27.951Z,1009.85
2019-05-10T13:41:27.902Z,1009.83
2019-05-10T13:42:27.940Z,1009.82
2019-05-10T13:43:28.377Z,1009.80
2019-05-10T13:44:27.913Z,1009.74
2019-05-10T13:46:27.896Z,1009.85
2019-05-10T13:47:27.972Z,1009.82
2019-05-10T13:48:27.919Z,1009.90
2019-05-10T13:49:27.933Z,1010.00
2019-05-10T13:51:27.952Z,1010.09
2019-05-10T13:52:29.986Z,1010.10
2019-05-10T13:53:27.968Z,1010.19
2019-05-10T13:54:31.225Z,1010.26
2019-05-10T13:56:27.920Z,1010.32
2019-05-10T13:57:27.984Z,1010.30
2019-05-10T13:58:27.926Z,1010.35
2019-05-10T13:59:27.983Z,1010.37
2019-05-10T14:02:32.524Z,1010.31
2019-05-10T14:03:42.208Z,1010.43
2019-05-10T14:04:27.920Z,1010.42
2019-05-10T14:05:27.944Z,1010.40
2019-05-10T14:07:27.988Z,1010.42
2019-05-10T14:08:27.977Z,1010.43
2019-05-10T14:09:27.967Z,1010.40
2019-05-10T14:10:27.963Z,1010.43
2019-05-10T14:13:28.004Z,1010.43
2019-05-10T14:14:27.969Z,1010.39
2019-05-10T14:15:27.987Z,1010.31
2019-05-10T14:16:27.981Z,1010.41
2019-05-10T14:18:27.976Z,1010.34
2019-05-10T14:19:27.948Z,1010.36
2019-05-10T14:20:28.006Z,1010.29
2019-05-10T14:21:27.980Z,1010.31
2019-05-10T14:24:27.990Z,1010.29
2019-05-10T14:25:29.532Z,1010.28
2019-05-10T14:26:27.952Z,1010.31
2019-05-10T14:27:29.896Z,1010.28
2019-05-10T14:29:34.165Z,1010.20
2019-05-10T14:30:27.989Z,1010.25
2019-05-10T14:31:28.032Z,1010.26
2019-05-10T14:32:27.985Z,1010.19
2019-05-10T14:34:27.993Z,1010.24
2019-05-10T14:35:27.966Z,1010.22
2019-05-10T14:36:28.021Z,1010.23
2019-05-10T14:37:27.959Z,1010.21
2019-05-10T14:39:27.975Z,1010.30
2019-05-10T14:40:30.369Z,1010.30
2019-05-10T14:41:27.968Z,1010.26
2019-05-10T14:42:30.919Z,1010.32
2019-05-10T14:44:27.972Z,1010.28
2019-05-10T14:45:28.009Z,1010.28
2019-05-10T14:46:28.031Z,1010.26
2019-05-10T14:47:28.020Z,1010.26
2019-05-10T14:49:28.010Z,1010.29
2019-05-10T14:50:28.466Z,1010.29
2019-05-10T14:51:44.128Z,1010.28
2019-05-10T14:52:28.044Z,1010.25
2019-05-10T14:54:42.805Z,1010.23
2019-05-10T14:56:28.015Z,1010.22
2019-05-10T14:57:28.029Z,1010.28
2019-05-10T14:59:28.007Z,1010.22
2019-05-10T15:00:28.021Z,1010.22
2019-05-10T15:01:28.026Z,1010.23
2019-05-10T15:02:28.030Z,1010.23
2019-05-10T15:04:44.445Z,1010.23
2019-05-10T15:05:28.057Z,1010.20
2019-05-10T15:06:30.689Z,1010.22
2019-05-10T15:07:28.031Z,1010.22
2019-05-10T15:09:27.976Z,1010.23
2019-05-10T15:10:32.853Z,1010.20
2019-05-10T15:11:31.591Z,1010.21
2019-05-10T15:12:27.991Z,1010.19
2019-05-10T15:15:31.100Z,1010.24
2019-05-10T15:16:30.782Z,1010.27
2019-05-10T15:17:30.333Z,1010.23
2019-05-10T15:18:28.014Z,1010.31
2019-05-10T15:20:28.002Z,1010.25
2019-05-10T15:21:28.054Z,1010.29
2019-05-10T15:22:28.022Z,1010.27
2019-05-10T15:23:28.004Z,1010.29
2019-05-10T15:26:28.079Z,1010.24
2019-05-10T15:27:28.034Z,1010.26
2019-05-10T15:28:34.607Z,1010.29
2019-05-10T15:29:28.081Z,1010.30
2019-05-10T15:31:29.165Z,1010.31
2019-05-10T15:32:28.019Z,1010.35
2019-05-10T15:33:28.021Z,1010.35
2019-05-10T15:34:28.026Z,1010.38
2019-05-10T15:36:29.647Z,1010.36
2019-05-10T15:37:28.066Z,1010.36
2019-05-10T15:38:28.076Z,1010.32
2019-05-10T15:39:29.097Z,1010.34
2019-05-10T15:41:28.074Z,1010.36
2019-05-10T15:42:30.383Z,1010.37
2019-05-10T15:43:28.044Z,1010.39
2019-05-10T15:44:31.307Z,1010.41
2019-05-10T15:46:35.309Z,1010.56
2019-05-10T15:47:28.061Z,1010.57
2019-05-10T15:48:28.059Z,1010.55